Time;durP1;ratioP1;P1;durP2;ratioP2;P2;SDS_P1;SDS_P2;PMS_P1;PMS_P2;Temp;Humidity;BMP_temperature;BMP_pressure;BME280_temperature;BME280_humidity;BME280_pressure;Samples;Min_cycle;Max_cycle;Signal;HPM_P1;HPM_P2
2022/11/30 00:00:18;;;;;;;52.58;31.52;;;7.10;99.90;;;;;;5011332;28;20065;-70
2022/11/30 00:02:45;;;;;;;52.03;34.03;;;7.10;99.90;;;;;;5013088;28;20156;-71
2022/11/30 00:05:11;;;;;;;60.20;33.30;;;7.20;99.90;;;;;;5011977;28;20084;-71
2022/11/30 00:07:37;;;;;;;54.25;33.72;;;7.10;99.90;;;;;;5011764;28;20106;-71
2022/11/30 00:10:04;;;;;;;54.75;32.17;;;7.10;99.90;;;;;;5013994;28;20112;-71
2022/11/30 00:12:30;;;;;;;48.42;31.25;;;7.20;99.90;;;;;;5011814;28;20057;-71
2022/11/30 00:14:56;;;;;;;56.53;32.13;;;7.10;99.90;;;;;;5013462;28;20030;-71
2022/11/30 00:17:22;;;;;;;55.80;35.17;;;7.20;99.90;;;;;;5012641;28;20470;-71
2022/11/30 00:19:47;;;;;;;55.13;32.35;;;7.10;99.90;;;;;;5011834;28;20057;-71
2022/11/30 00:22:13;;;;;;;54.67;32.92;;;7.20;99.90;;;;;;5012302;28;20064;-71
2022/11/30 00:24:39;;;;;;;59.60;33.78;;;7.10;99.90;;;;;;5011913;28;20061;-71
2022/11/30 00:27:05;;;;;;;54.00;31.83;;;7.10;99.90;;;;;;5010979;28;20033;-71
2022/11/30 00:29:30;;;;;;;53.45;32.72;;;7.10;99.90;;;;;;5010804;28;20029;-70
2022/11/30 00:31:56;;;;;;;53.15;31.50;;;7.10;99.90;;;;;;5012947;28;20044;-71
2022/11/30 00:34:21;;;;;;;54.42;34.08;;;7.10;99.90;;;;;;5011845;28;20032;-71
2022/11/30 00:36:47;;;;;;;51.45;32.13;;;7.10;99.90;;;;;;5011472;28;20042;-71
2022/11/30 00:39:13;;;;;;;50.35;32.85;;;7.10;99.90;;;;;;5012349;28;20473;-71
2022/11/30 00:41:38;;;;;;;61.85;35.47;;;7.10;99.90;;;;;;5012077;28;20034;-71
2022/11/30 00:44:04;;;;;;;52.17;32.08;;;7.10;99.90;;;;;;5012968;28;20437;-71
2022/11/30 00:46:30;;;;;;;52.05;31.73;;;7.10;99.90;;;;;;5012768;28;20094;-72
2022/11/30 00:48:55;;;;;;;52.25;31.95;;;7.10;99.90;;;;;;5012813;28;20485;-71
2022/11/30 00:51:21;;;;;;;57.22;32.40;;;7.10;99.90;;;;;;5011586;28;20046;-69
2022/11/30 00:53:47;;;;;;;49.28;31.90;;;7.10;99.90;;;;;;5011413;28;20030;-70
2022/11/30 00:56:13;;;;;;;49.90;32.67;;;7.00;99.90;;;;;;5011094;28;20038;-70
2022/11/30 00:58:39;;;;;;;57.35;32.97;;;7.00;99.90;;;;;;5012460;28;20030;-70
2022/11/30 01:01:06;;;;;;;53.63;33.75;;;7.00;99.90;;;;;;5010311;28;20157;-70
2022/11/30 01:03:32;;;;;;;60.45;31.67;;;6.90;99.90;;;;;;5012107;28;20026;-70
2022/11/30 01:06:03;;;;;;;55.42;34.40;;;6.90;99.90;;;;;;5011716;28;20034;-70
2022/11/30 01:08:28;;;;;;;55.20;33.35;;;7.00;99.90;;;;;;5012045;28;20033;-70
2022/11/30 01:10:56;;;;;;;50.17;31.85;;;6.90;99.90;;;;;;5012238;28;20523;-70
2022/11/30 01:13:22;;;;;;;58.95;35.63;;;6.90;99.90;;;;;;5009572;28;20032;-70
2022/11/30 01:15:49;;;;;;;52.88;32.28;;;7.00;99.90;;;;;;5010877;28;20426;-70
2022/11/30 01:18:15;;;;;;;52.78;32.25;;;7.00;99.90;;;;;;5008982;28;20209;-70
2022/11/30 01:20:42;;;;;;;58.47;34.92;;;7.00;99.90;;;;;;5012897;28;20038;-70
2022/11/30 01:23:08;;;;;;;53.75;33.25;;;7.00;99.90;;;;;;5007952;28;20030;-69
2022/11/30 01:25:34;;;;;;;51.47;32.83;;;6.90;99.90;;;;;;5010009;28;20116;-69
2022/11/30 01:27:59;;;;;;;55.85;34.20;;;6.90;99.90;;;;;;5012738;28;20108;-69
2022/11/30 01:30:25;;;;;;;58.08;36.35;;;6.80;99.90;;;;;;5010182;28;20485;-70
2022/11/30 01:32:51;;;;;;;53.22;33.72;;;6.80;99.90;;;;;;5011980;28;20045;-69
2022/11/30 01:35:16;;;;;;;56.90;32.45;;;6.90;99.90;;;;;;5012207;28;20096;-70
2022/11/30 01:37:42;;;;;;;53.78;33.67;;;6.80;99.90;;;;;;5008975;28;20164;-69
2022/11/30 01:40:09;;;;;;;52.47;33.03;;;6.70;99.90;;;;;;5011607;28;20701;-69
2022/11/30 01:42:36;;;;;;;59.50;34.53;;;6.80;99.90;;;;;;5010417;28;20045;-69
2022/11/30 01:45:05;;;;;;;55.60;34.03;;;6.80;99.90;;;;;;5009715;28;20483;-69
2022/11/30 01:47:39;;;;;;;52.75;33.40;;;6.80;99.90;;;;;;5009331;28;20061;-69
2022/11/30 01:50:37;;;;;;;56.03;34.17;;;6.80;99.90;;;;;;4995404;28;20026;-70
2022/11/30 01:53:08;;;;;;;58.17;34.55;;;6.80;99.90;;;;;;5015890;28;20038;-70
2022/11/30 01:55:38;;;;;;;57.78;35.53;;;6.80;99.90;;;;;;5010687;28;20029;-69
2022/11/30 01:58:13;;;;;;;60.90;36.88;;;6.80;99.90;;;;;;5011172;28;20076;-70
2022/11/30 02:00:42;;;;;;;;;;;6.70;99.90;;;;;;5012058;28;20040;-70
2022/11/30 02:03:25;;;;;;;51.63;31.85;;;6.70;99.90;;;;;;5008097;28;19916;-70
2022/11/30 02:05:50;;;;;;;55.88;33.65;;;6.70;99.90;;;;;;4998898;28;20034;-70
2022/11/30 02:08:18;;;;;;;53.00;33.00;;;6.70;99.90;;;;;;5007327;28;20084;-70
2022/11/30 02:10:49;;;;;;;61.47;34.33;;;6.70;99.90;;;;;;5011977;28;20058;-69
2022/11/30 02:13:30;;;;;;;63.33;35.83;;;6.60;99.90;;;;;;5025758;28;20034;-69
2022/11/30 02:16:23;;;;;;;55.42;33.20;;;6.70;99.90;;;;;;5009919;28;20033;-70
2022/11/30 02:18:57;;;;;;;56.42;33.92;;;6.80;99.90;;;;;;5006819;28;20018;-69
2022/11/30 02:21:39;;;;;;;58.83;35.13;;;6.80;99.90;;;;;;5002190;28;20046;-70
2022/11/30 02:24:32;;;;;;;54.80;33.88;;;6.70;99.90;;;;;;5011719;28;20029;-70
2022/11/30 02:27:42;;;;;;;55.03;34.25;;;6.70;99.90;;;;;;5011028;28;20359;-70
2022/11/30 02:30:15;;;;;;;58.35;34.08;;;6.70;99.90;;;;;;4992085;28;20030;-69
2022/11/30 02:32:53;;;;;;;56.95;34.45;;;6.70;99.90;;;;;;5010400;28;20363;-70
2022/11/30 02:35:23;;;;;;;53.85;33.22;;;6.70;99.90;;;;;;5009434;28;20100;-70
2022/11/30 02:37:51;;;;;;;62.42;36.45;;;6.60;99.90;;;;;;5006700;28;20117;-70
2022/11/30 02:40:19;;;;;;;55.63;33.17;;;6.60;99.90;;;;;;5010558;28;20030;-70
2022/11/30 02:42:46;;;;;;;56.58;35.03;;;6.60;99.90;;;;;;5014069;28;20040;-70
2022/11/30 02:45:12;;;;;;;59.70;33.08;;;6.70;99.90;;;;;;5016911;28;20030;-71
2022/11/30 02:48:10;;;;;;;55.92;33.67;;;6.70;99.90;;;;;;5017548;28;20428;-70
2022/11/30 02:50:50;;;;;;;55.30;32.47;;;6.70;99.90;;;;;;5017815;28;20436;-70
2022/11/30 02:53:16;;;;;;;56.03;34.13;;;6.60;99.90;;;;;;5017767;28;20479;-71
2022/11/30 02:55:42;;;;;;;55.33;33.63;;;6.70;99.90;;;;;;5017406;28;20033;-70
2022/11/30 02:58:07;;;;;;;53.65;33.40;;;6.70;99.90;;;;;;5017595;28;20057;-70
2022/11/30 03:00:33;;;;;;;57.20;33.13;;;6.70;99.90;;;;;;5017056;28;20033;-70
2022/11/30 03:02:59;;;;;;;53.90;33.85;;;6.70;99.90;;;;;;5017244;28;20029;-70
2022/11/30 03:05:24;;;;;;;59.90;35.95;;;6.70;99.90;;;;;;5018107;28;20104;-70
2022/11/30 03:07:50;;;;;;;52.60;35.85;;;6.70;99.90;;;;;;5016632;28;20038;-70
2022/11/30 03:10:16;;;;;;;53.80;32.78;;;6.70;99.90;;;;;;5017392;28;20413;-69
2022/11/30 03:12:41;;;;;;;54.70;33.88;;;6.70;99.90;;;;;;5017124;28;20461;-70
2022/11/30 03:15:07;;;;;;;54.75;34.47;;;6.80;99.90;;;;;;5017609;28;20037;-69
2022/11/30 03:17:33;;;;;;;53.33;33.47;;;6.80;99.90;;;;;;5016400;28;20030;-69
2022/11/30 03:19:59;;;;;;;54.95;34.97;;;6.80;99.90;;;;;;5017904;28;20034;-69
2022/11/30 03:22:25;;;;;;;55.25;34.08;;;6.80;99.90;;;;;;5017070;28;20059;-69
2022/11/30 03:24:51;;;;;;;62.05;35.53;;;6.80;99.90;;;;;;5018444;28;20436;-69
2022/11/30 03:27:17;;;;;;;53.97;34.10;;;6.80;99.90;;;;;;5016889;28;20033;-69
2022/11/30 03:29:43;;;;;;;51.00;33.80;;;6.80;99.90;;;;;;5016507;28;20030;-70
2022/11/30 03:32:08;;;;;;;55.85;33.42;;;6.80;99.90;;;;;;5017261;28;20030;-70
2022/11/30 03:34:34;;;;;;;54.30;32.22;;;6.90;99.90;;;;;;5015365;28;20099;-69
2022/11/30 03:36:59;;;;;;;55.28;34.13;;;6.90;99.90;;;;;;5017084;28;20109;-69
2022/11/30 03:39:25;;;;;;;50.17;32.97;;;6.80;99.90;;;;;;5016435;28;20044;-69
2022/11/30 03:41:51;;;;;;;54.45;34.92;;;6.80;99.90;;;;;;5017605;28;20125;-69
2022/11/30 03:44:17;;;;;;;52.47;32.30;;;6.80;99.90;;;;;;5016374;28;20018;-69
2022/11/30 03:46:43;;;;;;;53.20;31.33;;;6.80;99.90;;;;;;5016536;28;20548;-69
2022/11/30 03:49:08;;;;;;;54.17;32.33;;;6.90;99.90;;;;;;5014997;28;20462;-69
2022/11/30 03:51:34;;;;;;;54.55;33.30;;;6.80;99.90;;;;;;5017959;28;20022;-69
2022/11/30 03:54:00;;;;;;;56.13;34.35;;;6.80;99.90;;;;;;5014455;28;20099;-69
2022/11/30 03:56:26;;;;;;;59.80;36.35;;;6.70;99.90;;;;;;5013037;28;20501;-69
2022/11/30 03:58:52;;;;;;;58.38;35.15;;;6.70;99.90;;;;;;5012643;28;20065;-69
2022/11/30 04:01:23;;;;;;;57.80;36.35;;;6.70;99.90;;;;;;5012595;28;20096;-69
2022/11/30 04:03:50;;;;;;;56.13;33.05;;;6.70;99.90;;;;;;5012593;28;20117;-69
2022/11/30 04:06:17;;;;;;;55.83;34.08;;;6.60;99.90;;;;;;5013774;28;20033;-69
2022/11/30 04:08:43;;;;;;;56.05;34.70;;;6.70;99.90;;;;;;5013452;28;20022;-69
2022/11/30 04:11:09;;;;;;;59.03;36.03;;;6.70;99.90;;;;;;5014488;28;20017;-70
2022/11/30 04:13:37;;;;;;;58.92;35.63;;;6.70;99.90;;;;;;5013640;28;20038;-69
2022/11/30 04:16:04;;;;;;;59.35;37.38;;;6.70;99.90;;;;;;5014204;28;20029;-69
2022/11/30 04:18:31;;;;;;;51.88;33.58;;;6.70;99.90;;;;;;5012744;28;20025;-70
2022/11/30 04:20:59;;;;;;;55.95;34.70;;;6.70;99.90;;;;;;5013352;28;20044;-69
2022/11/30 04:23:29;;;;;;;54.97;33.22;;;6.60;99.90;;;;;;5011756;28;20505;-70
2022/11/30 04:25:56;;;;;;;58.05;36.67;;;6.60;99.90;;;;;;5045834;28;20114;-69
2022/11/30 04:28:22;;;;;;;58.22;34.47;;;6.60;99.90;;;;;;5008613;28;20022;-69
2022/11/30 04:30:48;;;;;;;61.10;36.58;;;6.60;99.90;;;;;;5003637;28;20057;-70
2022/11/30 04:33:15;;;;;;;56.08;34.92;;;6.60;99.90;;;;;;5027232;28;20358;-70
2022/11/30 04:35:46;;;;;;;60.97;37.65;;;6.60;99.90;;;;;;5011975;28;20742;-70
2022/11/30 04:38:12;;;;;;;56.72;36.22;;;6.60;99.90;;;;;;5011487;28;20030;-70
2022/11/30 04:40:41;;;;;;;58.53;34.13;;;6.60;99.90;;;;;;5011599;28;20111;-69
2022/11/30 04:43:09;;;;;;;59.53;35.58;;;6.60;99.90;;;;;;5014084;28;20436;-69
2022/11/30 04:45:35;;;;;;;56.50;33.53;;;6.50;99.90;;;;;;5013335;28;20041;-70
2022/11/30 04:48:01;;;;;;;58.70;36.00;;;6.60;99.90;;;;;;5012129;28;20034;-70
2022/11/30 04:50:27;;;;;;;57.47;35.40;;;6.50;99.90;;;;;;5012984;28;20029;-70
2022/11/30 04:52:53;;;;;;;57.05;35.08;;;6.50;99.90;;;;;;5010196;28;22003;-70
2022/11/30 04:55:19;;;;;;;57.42;35.03;;;6.60;99.90;;;;;;5011502;28;20030;-70
2022/11/30 04:57:45;;;;;;;61.53;36.65;;;6.60;99.90;;;;;;5012240;28;20033;-70
2022/11/30 05:00:13;;;;;;;57.72;34.53;;;6.60;99.90;;;;;;5012429;28;20037;-70
2022/11/30 05:02:40;;;;;;;60.30;35.67;;;6.60;99.90;;;;;;5009948;28;20057;-70
2022/11/30 05:05:06;;;;;;;58.25;35.38;;;6.50;99.90;;;;;;5011971;28;20034;-70
2022/11/30 05:07:31;;;;;;;55.38;34.20;;;6.60;99.90;;;;;;5010323;28;20030;-71
2022/11/30 05:09:57;;;;;;;57.22;34.40;;;6.50;99.90;;;;;;5012565;28;20358;-69
2022/11/30 05:12:23;;;;;;;58.22;36.00;;;6.50;99.90;;;;;;5012875;28;20033;-71
2022/11/30 05:14:49;;;;;;;55.15;31.90;;;6.50;99.90;;;;;;5011316;28;20032;-70
2022/11/30 05:17:15;;;;;;;56.88;34.15;;;6.60;99.90;;;;;;5011035;28;20021;-70
2022/11/30 05:19:41;;;;;;;56.38;32.50;;;6.50;99.90;;;;;;5012083;28;20029;-71
2022/11/30 05:22:07;;;;;;;60.47;35.70;;;6.50;99.90;;;;;;5010646;28;20037;-70
2022/11/30 05:24:33;;;;;;;59.90;33.55;;;6.50;99.90;;;;;;5011878;28;20018;-70
2022/11/30 05:26:59;;;;;;;61.83;34.35;;;6.50;99.90;;;;;;5011731;28;20523;-70
2022/11/30 05:29:25;;;;;;;56.58;33.45;;;6.50;99.90;;;;;;5012001;28;20531;-69
2022/11/30 05:31:51;;;;;;;57.63;36.30;;;6.50;99.90;;;;;;5012311;28;20030;-70
2022/11/30 05:34:16;;;;;;;55.22;34.05;;;6.50;99.90;;;;;;5010326;28;20504;-70
2022/11/30 05:36:43;;;;;;;57.20;32.88;;;6.50;99.90;;;;;;5011344;28;20439;-71
2022/11/30 05:39:09;;;;;;;55.72;34.03;;;6.50;99.90;;;;;;5011970;28;20030;-70
2022/11/30 05:41:35;;;;;;;54.10;33.63;;;6.60;99.90;;;;;;5010963;28;20048;-70
2022/11/30 05:44:00;;;;;;;57.25;33.95;;;6.60;99.90;;;;;;5012019;28;20088;-69
2022/11/30 05:46:27;;;;;;;57.97;34.58;;;6.60;99.90;;;;;;5012449;28;20040;-69
2022/11/30 05:48:53;;;;;;;59.95;36.53;;;6.70;99.90;;;;;;5011450;28;20044;-70
2022/11/30 05:51:19;;;;;;;52.50;33.65;;;6.60;99.90;;;;;;5012314;28;20505;-70
2022/11/30 05:53:46;;;;;;;57.58;35.10;;;6.60;99.90;;;;;;5011542;28;20188;-70
2022/11/30 05:56:14;;;;;;;55.20;35.08;;;6.60;99.90;;;;;;5004322;28;20039;-71
2022/11/30 05:58:41;;;;;;;52.15;32.17;;;6.70;99.90;;;;;;5006346;28;20026;-70
2022/11/30 06:01:15;;;;;;;57.53;34.80;;;6.70;99.90;;;;;;5011861;28;20087;-70
2022/11/30 06:03:42;;;;;;;59.55;34.83;;;6.70;99.90;;;;;;5011057;28;20096;-71
2022/11/30 06:06:08;;;;;;;56.55;33.55;;;6.70;99.90;;;;;;4996367;28;20030;-70
2022/11/30 06:08:33;;;;;;;55.22;33.22;;;6.70;99.90;;;;;;5011385;28;20041;-70
2022/11/30 06:11:00;;;;;;;59.00;34.22;;;6.70;99.90;;;;;;5011714;28;20030;-70
2022/11/30 06:13:26;;;;;;;55.42;32.22;;;6.70;99.90;;;;;;5013276;28;20026;-70
2022/11/30 06:15:52;;;;;;;51.97;33.13;;;6.70;99.90;;;;;;5007582;28;20548;-70
2022/11/30 06:18:17;;;;;;;53.75;34.38;;;6.70;99.90;;;;;;5011120;28;20058;-70
2022/11/30 06:20:43;;;;;;;58.63;34.63;;;6.70;99.90;;;;;;5011918;28;20163;-71
2022/11/30 06:23:09;;;;;;;54.90;33.50;;;6.70;99.90;;;;;;5041991;28;20026;-70
2022/11/30 06:25:34;;;;;;;57.22;33.60;;;6.60;99.90;;;;;;5008635;28;20500;-71
2022/11/30 06:28:00;;;;;;;56.30;34.08;;;6.70;99.90;;;;;;5010813;28;20033;-70
2022/11/30 06:30:25;;;;;;;53.72;34.30;;;6.70;99.90;;;;;;5010153;28;20034;-70
2022/11/30 06:32:51;;;;;;;53.20;32.13;;;6.70;99.90;;;;;;5012365;28;20470;-70
2022/11/30 06:35:17;;;;;;;50.92;31.23;;;6.70;99.90;;;;;;5007986;28;20046;-70
2022/11/30 06:37:43;;;;;;;51.60;32.53;;;6.70;99.90;;;;;;5012052;28;20046;-71
2022/11/30 06:40:11;;;;;;;54.80;32.70;;;6.60;99.90;;;;;;5009306;28;20030;-70
2022/11/30 06:42:37;;;;;;;53.25;31.50;;;6.60;99.90;;;;;;5019780;28;20120;-71
2022/11/30 06:45:04;;;;;;;55.55;34.03;;;6.70;99.90;;;;;;5014065;28;20422;-71
2022/11/30 06:47:30;;;;;;;53.55;32.75;;;6.70;99.90;;;;;;5009748;28;20477;-71
2022/11/30 06:49:56;;;;;;;49.70;32.60;;;6.70;99.90;;;;;;5011130;28;20116;-70
2022/11/30 06:52:22;;;;;;;57.33;34.60;;;6.70;99.90;;;;;;5010800;28;20462;-70
2022/11/30 06:54:48;;;;;;;56.75;32.53;;;6.70;99.90;;;;;;5007393;28;20409;-70
2022/11/30 06:57:13;;;;;;;52.13;32.70;;;6.70;99.90;;;;;;5011630;28;20069;-70
2022/11/30 06:59:42;;;;;;;55.10;33.95;;;6.60;99.90;;;;;;5009316;28;20054;-69
2022/11/30 07:02:12;;;;;;;58.40;34.67;;;6.60;99.90;;;;;;5008274;28;20401;-69
2022/11/30 07:04:38;;;;;;;52.13;31.88;;;6.60;99.90;;;;;;5009704;28;20041;-70
2022/11/30 07:07:04;;;;;;;47.83;30.65;;;6.50;99.90;;;;;;5027061;28;20034;-70
2022/11/30 07:09:31;;;;;;;56.20;32.70;;;6.60;99.90;;;;;;5019605;28;20114;-69
2022/11/30 07:11:58;;;;;;;51.88;32.90;;;6.50;99.90;;;;;;5011055;28;20037;-73
2022/11/30 07:14:24;;;;;;;52.70;33.22;;;6.50;99.90;;;;;;5010424;28;20026;-69
2022/11/30 07:16:50;;;;;;;51.33;31.98;;;6.50;99.90;;;;;;4997539;28;20030;-67
2022/11/30 07:19:16;;;;;;;51.85;31.23;;;6.50;99.90;;;;;;5010877;28;20044;-66
2022/11/30 07:21:42;;;;;;;54.35;31.85;;;6.60;99.90;;;;;;5009972;28;20038;-69
2022/11/30 07:26:55;;;;;;;52.83;34.20;;;6.60;99.90;;;;;;5011553;28;20084;-66
2022/11/30 07:29:21;;;;;;;53.03;33.15;;;6.60;99.90;;;;;;5002804;28;20018;-68
2022/11/30 07:31:51;;;;;;;56.42;34.30;;;6.60;99.80;;;;;;5013670;28;20551;-68
2022/11/30 07:34:17;;;;;;;53.55;32.55;;;6.70;99.90;;;;;;5011115;28;20030;-69
2022/11/30 07:36:43;;;;;;;50.58;29.95;;;6.70;99.90;;;;;;5011632;28;20034;-69
2022/11/30 07:39:09;;;;;;;50.05;31.13;;;6.70;99.90;;;;;;5013254;28;20036;-67
2022/11/30 07:41:34;;;;;;;52.70;31.67;;;6.70;99.90;;;;;;5013625;28;20038;-67
2022/11/30 07:44:03;;;;;;;58.97;33.38;;;6.70;99.90;;;;;;5015434;28;20022;-67
2022/11/30 07:46:30;;;;;;;57.38;32.33;;;6.70;99.80;;;;;;5010999;28;20076;-67
2022/11/30 07:48:56;;;;;;;56.30;33.35;;;6.80;99.90;;;;;;5015413;28;20046;-66
2022/11/30 07:51:22;;;;;;;61.00;32.95;;;6.80;99.90;;;;;;5005867;28;20030;-68
2022/11/30 07:53:50;;;;;;;57.28;34.25;;;6.80;99.90;;;;;;5014601;28;20565;-67
2022/11/30 07:56:19;;;;;;;54.58;32.75;;;6.80;99.90;;;;;;5013865;28;20121;-67
2022/11/30 07:58:46;;;;;;;54.30;32.60;;;6.80;99.90;;;;;;5002893;28;20026;-67
2022/11/30 08:01:15;;;;;;;51.72;30.40;;;6.80;99.90;;;;;;5011087;28;20088;-68
2022/11/30 08:03:41;;;;;;;52.20;30.83;;;6.80;99.80;;;;;;5013152;28;20124;-67
2022/11/30 08:06:10;;;;;;;56.13;34.25;;;6.80;99.80;;;;;;5013633;28;20041;-68
2022/11/30 08:08:42;;;;;;;57.58;32.50;;;6.80;99.80;;;;;;5013169;28;20029;-68
2022/11/30 08:11:11;;;;;;;55.97;34.17;;;6.80;99.70;;;;;;5014013;28;20030;-67
2022/11/30 08:13:37;;;;;;;57.83;32.58;;;6.80;99.70;;;;;;5011796;28;20417;-68
2022/11/30 08:16:06;;;;;;;57.55;34.53;;;6.80;99.70;;;;;;5012659;28;20038;-67
2022/11/30 08:18:32;;;;;;;59.60;33.55;;;6.80;99.70;;;;;;5012268;28;20473;-67
2022/11/30 08:20:59;;;;;;;56.67;33.42;;;6.80;99.70;;;;;;5011977;28;20061;-67
2022/11/30 08:23:27;;;;;;;55.70;33.92;;;6.80;99.70;;;;;;5012202;28;20048;-67
2022/11/30 08:25:53;;;;;;;50.55;32.67;;;6.80;99.70;;;;;;5012230;28;20026;-68
2022/11/30 08:28:19;;;;;;;57.22;34.55;;;6.90;99.70;;;;;;5012906;28;20025;-68
2022/11/30 08:30:45;;;;;;;51.70;31.95;;;6.90;99.70;;;;;;5012586;28;20425;-68
2022/11/30 08:33:10;;;;;;;52.90;32.83;;;6.90;99.70;;;;;;5012651;28;20030;-69
2022/11/30 08:35:36;;;;;;;54.92;33.22;;;6.90;99.70;;;;;;5009807;28;20125;-68
2022/11/30 08:38:02;;;;;;;52.03;33.63;;;6.90;99.70;;;;;;5013904;28;20098;-68
2022/11/30 08:40:27;;;;;;;55.67;33.00;;;7.00;99.90;;;;;;5011069;28;20117;-68
2022/11/30 08:42:53;;;;;;;53.42;32.17;;;7.00;99.70;;;;;;5013623;28;20080;-67
2022/11/30 08:45:18;;;;;;;53.63;32.33;;;7.00;99.60;;;;;;5011557;28;20129;-68
2022/11/30 08:47:44;;;;;;;53.67;31.67;;;7.10;99.70;;;;;;4999539;28;20030;-69
2022/11/30 08:50:10;;;;;;;58.05;32.92;;;7.10;99.80;;;;;;5011669;28;20409;-67
2022/11/30 08:52:36;;;;;;;57.25;35.35;;;7.10;99.50;;;;;;5011986;28;20033;-67
2022/11/30 08:55:01;;;;;;;49.25;31.77;;;7.10;99.50;;;;;;5012984;28;20120;-67
2022/11/30 08:57:27;;;;;;;53.53;33.78;;;7.20;99.50;;;;;;5012763;28;20026;-68
2022/11/30 08:59:53;;;;;;;51.42;30.25;;;7.10;99.40;;;;;;5013533;28;20072;-68
2022/11/30 09:02:18;;;;;;;53.17;31.00;;;7.10;99.40;;;;;;5013025;28;20454;-68
2022/11/30 09:04:47;;;;;;;48.55;30.88;;;7.10;99.40;;;;;;5015601;28;20100;-67
2022/11/30 09:07:13;;;;;;;55.90;33.10;;;7.20;99.40;;;;;;5010563;28;20049;-67
2022/11/30 09:09:39;;;;;;;57.90;36.33;;;7.20;99.30;;;;;;5008347;28;20427;-67
2022/11/30 09:12:06;;;;;;;55.72;34.95;;;7.20;99.30;;;;;;5011675;28;20033;-67
2022/11/30 09:14:32;;;;;;;57.15;34.38;;;7.20;99.30;;;;;;5009975;28;20022;-67
2022/11/30 09:16:59;;;;;;;58.13;34.28;;;7.20;99.30;;;;;;5010503;28;20034;-67
2022/11/30 09:19:26;;;;;;;57.58;34.42;;;7.20;99.20;;;;;;5016680;28;20061;-66
2022/11/30 09:21:52;;;;;;;49.47;32.72;;;7.30;99.20;;;;;;5003786;28;20046;-67
2022/11/30 09:24:18;;;;;;;52.47;33.75;;;7.30;99.20;;;;;;5005177;28;20057;-68
2022/11/30 09:26:44;;;;;;;51.80;31.30;;;7.30;99.20;;;;;;5007714;28;20394;-68
2022/11/30 09:29:09;;;;;;;51.50;31.48;;;7.40;99.10;;;;;;5005337;28;20118;-68
2022/11/30 09:31:35;;;;;;;55.88;31.13;;;7.40;99.10;;;;;;5012915;28;20026;-67
2022/11/30 09:34:00;;;;;;;56.00;31.10;;;7.40;99.10;;;;;;5009420;28;20038;-67
2022/11/30 09:36:27;;;;;;;58.55;35.13;;;7.40;99.00;;;;;;5011432;28;20050;-69
2022/11/30 09:38:56;;;;;;;50.72;30.90;;;7.40;99.00;;;;;;5007276;28;20026;-68
2022/11/30 09:41:46;;;;;;;52.55;32.67;;;7.40;99.20;;;;;;5010989;28;20070;-68
2022/11/30 09:44:33;;;;;;;55.28;33.38;;;7.40;98.90;;;;;;5010156;28;20033;-66
2022/11/30 09:47:31;;;;;;;59.95;33.58;;;7.40;98.90;;;;;;5011775;28;20033;-66
2022/11/30 09:50:01;;;;;;;52.08;31.55;;;7.40;99.00;;;;;;5006092;28;20482;-67
2022/11/30 09:52:38;;;;;;;55.75;31.27;;;7.40;99.00;;;;;;5008210;28;20054;-66
2022/11/30 09:55:13;;;;;;;56.10;33.45;;;7.40;98.90;;;;;;5007598;28;20107;-67
2022/11/30 09:57:46;;;;;;;57.80;33.08;;;7.50;98.90;;;;;;5005147;28;20132;-67
2022/11/30 10:00:13;;;;;;;47.97;31.58;;;7.40;98.90;;;;;;5006185;28;20038;-67
2022/11/30 10:02:40;;;;;;;55.88;34.10;;;7.50;98.90;;;;;;5010246;28;20057;-67
2022/11/30 10:05:40;;;;;;;58.47;34.33;;;7.40;98.80;;;;;;5009345;28;20076;-67
2022/11/30 10:08:21;;;;;;;50.13;32.97;;;7.50;98.80;;;;;;5006161;28;20076;-67
2022/11/30 10:11:14;;;;;;;53.80;33.53;;;7.50;98.80;;;;;;5010415;28;20029;-66
2022/11/30 10:14:18;;;;;;;54.90;33.58;;;7.50;98.80;;;;;;5004320;28;20029;-67
2022/11/30 10:16:58;;;;;;;53.85;32.38;;;7.50;98.80;;;;;;5008833;28;20120;-66
2022/11/30 10:19:32;;;;;;;52.83;31.85;;;7.60;98.80;;;;;;5010561;28;20022;-66
2022/11/30 10:22:17;;;;;;;53.78;32.63;;;7.60;98.80;;;;;;5008103;28;20405;-66
2022/11/30 10:25:07;;;;;;;51.58;32.75;;;7.60;98.70;;;;;;5009072;28;20033;-66
2022/11/30 10:27:44;;;;;;;52.10;32.70;;;7.60;98.70;;;;;;5005747;28;20121;-66
2022/11/30 10:30:21;;;;;;;53.17;32.00;;;7.60;98.60;;;;;;5005784;28;20284;-66
2022/11/30 10:32:52;;;;;;;56.28;35.25;;;7.60;98.70;;;;;;5007071;28;20509;-66
2022/11/30 10:35:43;;;;;;;58.97;35.83;;;7.70;98.70;;;;;;5006938;28;20092;-66
2022/11/30 10:38:18;;;;;;;55.65;32.92;;;7.70;98.60;;;;;;5007750;28;20030;-67
2022/11/30 10:40:56;;;;;;;;;;;7.80;98.60;;;;;;5005876;28;20104;-66
2022/11/30 10:43:29;;;;;;;52.63;32.75;;;7.80;98.70;;;;;;5007421;28;20032;-66
2022/11/30 10:45:55;;;;;;;57.08;33.22;;;7.80;98.60;;;;;;5004067;28;20030;-66
2022/11/30 10:48:29;;;;;;;58.95;33.65;;;7.80;98.60;;;;;;5003553;28;20493;-66
2022/11/30 10:50:56;;;;;;;52.35;33.10;;;7.90;98.60;;;;;;5008134;28;20030;-67
2022/11/30 10:53:22;;;;;;;52.45;32.08;;;8.00;98.60;;;;;;5006712;28;20017;-66
2022/11/30 10:56:09;;;;;;;51.05;29.13;;;8.00;98.50;;;;;;5009212;28;20476;-67
2022/11/30 10:58:37;;;;;;;55.35;32.65;;;8.00;98.30;;;;;;5007958;28;20046;-67
2022/11/30 11:01:28;;;;;;;50.72;31.73;;;8.00;98.30;;;;;;5011076;28;20037;-67
2022/11/30 11:04:12;;;;;;;50.03;31.30;;;8.00;98.20;;;;;;5003838;28;20136;-67
2022/11/30 11:06:53;;;;;;;54.53;32.50;;;8.00;98.20;;;;;;5009017;28;20050;-67
2022/11/30 11:09:33;;;;;;;52.08;33.83;;;8.00;98.20;;;;;;5012114;28;20101;-67
2022/11/30 11:12:33;;;;;;;49.63;31.08;;;8.00;98.10;;;;;;5015389;28;20053;-68
2022/11/30 11:15:22;;;;;;;54.80;34.47;;;8.00;98.10;;;;;;5008642;28;20087;-68
2022/11/30 11:17:50;;;;;;;49.33;31.95;;;8.00;98.10;;;;;;5007924;28;20038;-67
2022/11/30 11:20:34;;;;;;;53.28;32.72;;;8.00;98.10;;;;;;5006211;28;20037;-67
2022/11/30 11:23:01;;;;;;;56.33;33.83;;;8.00;98.00;;;;;;5010509;28;20037;-66
2022/11/30 11:25:41;;;;;;;51.50;32.70;;;7.90;98.00;;;;;;5009979;28;20025;-67
2022/11/30 11:28:14;;;;;;;50.63;32.55;;;7.90;98.00;;;;;;5011141;28;20034;-67
2022/11/30 11:30:40;;;;;;;52.88;31.88;;;7.90;98.30;;;;;;5011730;28;20021;-67
2022/11/30 11:33:19;;;;;;;51.80;34.92;;;8.00;98.10;;;;;;5014483;28;20036;-66
2022/11/30 11:35:51;;;;;;;56.05;34.78;;;7.90;97.90;;;;;;5015197;28;20050;-67
2022/11/30 11:38:30;;;;;;;61.58;35.20;;;8.00;98.00;;;;;;5014134;28;20117;-66
2022/11/30 11:41:06;;;;;;;61.53;37.28;;;7.90;98.00;;;;;;5013269;28;20053;-66
2022/11/30 11:43:36;;;;;;;57.75;36.35;;;7.90;97.90;;;;;;5012886;28;20030;-66
2022/11/30 11:46:11;;;;;;;63.50;36.22;;;7.80;97.90;;;;;;5011708;28;20041;-66
2022/11/30 11:48:39;;;;;;;;;;;7.80;97.90;;;;;;5014214;28;20112;-66
2022/11/30 11:51:07;;;;;;;51.47;33.15;;;7.80;97.80;;;;;;5011703;28;19932;-66
2022/11/30 11:53:44;;;;;;;54.42;31.73;;;7.60;98.10;;;;;;5013379;28;20038;-67
2022/11/30 11:56:26;;;;;;;59.60;37.13;;;7.70;98.00;;;;;;5012591;28;20038;-67
2022/11/30 11:59:00;;;;;;;53.55;33.58;;;7.70;98.00;;;;;;5013853;28;20030;-67
2022/11/30 12:02:10;;;;;;;58.25;35.25;;;7.70;98.00;;;;;;5013384;28;20362;-67
2022/11/30 12:04:40;;;;;;;59.80;34.95;;;7.70;98.00;;;;;;5007603;28;20033;-67
2022/11/30 12:07:32;;;;;;;57.50;34.83;;;7.60;97.90;;;;;;5013031;28;20036;-67
2022/11/30 12:10:13;;;;;;;58.05;34.63;;;7.60;97.90;;;;;;5012762;28;20427;-67
2022/11/30 12:12:39;;;;;;;56.72;33.55;;;7.60;98.00;;;;;;4997395;28;20284;-67
2022/11/30 12:15:11;;;;;;;55.30;36.08;;;7.60;98.00;;;;;;4998203;28;20113;-67
2022/11/30 12:18:01;;;;;;;62.58;37.55;;;7.60;98.00;;;;;;4999416;28;20042;-66
2022/11/30 12:20:53;;;;;;;57.72;35.28;;;7.70;98.00;;;;;;4999079;28;20161;-67
2022/11/30 12:23:44;;;;;;;56.78;34.30;;;7.70;98.00;;;;;;4999332;28;20054;-67
2022/11/30 12:26:16;;;;;;;57.72;34.08;;;7.60;98.00;;;;;;4993246;28;20077;-66
2022/11/30 12:28:50;;;;;;;57.50;35.70;;;7.70;98.00;;;;;;4998949;28;20018;-67
2022/11/30 12:31:17;;;;;;;61.45;37.25;;;7.70;98.00;;;;;;4997787;28;20750;-67
2022/11/30 12:34:16;;;;;;;67.00;38.22;;;7.80;98.00;;;;;;4997131;28;20571;-66
2022/11/30 12:36:47;;;;;;;58.08;35.08;;;7.80;98.00;;;;;;5000695;28;20085;-66
2022/11/30 12:39:30;;;;;;;65.20;39.33;;;7.80;98.00;;;;;;5004134;28;20112;-69
2022/11/30 12:42:11;;;;;;;58.97;36.60;;;7.80;97.90;;;;;;5000035;28;20038;-70
2022/11/30 12:44:53;;;;;;;58.05;36.28;;;7.70;97.90;;;;;;5000573;28;20029;-69
2022/11/30 12:47:22;;;;;;;64.28;37.42;;;7.70;97.90;;;;;;5001904;28;20030;-68
2022/11/30 12:50:02;;;;;;;63.53;38.67;;;7.70;97.90;;;;;;4998864;28;20049;-69
2022/11/30 12:52:41;;;;;;;65.10;39.53;;;7.70;97.90;;;;;;5001559;28;20037;-68
2022/11/30 12:55:25;;;;;;;62.45;38.15;;;7.70;97.90;;;;;;5002780;28;20045;-68